createdAt,value
2023-04-18T00:00:33.870Z,385.90
2023-04-18T00:01:34.109Z,373.01
2023-04-18T00:02:33.925Z,374.28
2023-04-18T00:03:34.271Z,376.43
2023-04-18T00:04:34.665Z,369.23
2023-04-18T00:05:33.810Z,371.32
2023-04-18T00:06:33.810Z,365.93
2023-04-18T00:07:33.790Z,362.30
2023-04-18T00:08:33.792Z,367.58
2023-04-18T00:09:33.788Z,365.12
2023-04-18T00:10:33.730Z,361.10
2023-04-18T00:11:33.763Z,362.30
2023-04-18T00:12:34.490Z,354.85
2023-04-18T00:13:33.711Z,352.57
2023-04-18T00:14:33.703Z,349.56
2023-04-18T00:15:33.667Z,349.19
2023-04-18T00:16:33.724Z,351.06
2023-04-18T00:17:33.688Z,345.88
2023-04-18T00:18:33.637Z,342.98
2023-04-18T00:19:33.628Z,341.20
2023-04-18T00:20:33.612Z,336.30
2023-04-18T00:21:33.606Z,337.00
2023-04-18T00:22:33.587Z,334.25
2023-04-18T00:23:33.600Z,332.22
2023-04-18T00:24:33.559Z,331.21
2023-04-18T00:25:33.527Z,328.23
2023-04-18T00:26:33.550Z,325.62
2023-04-18T00:27:33.751Z,324.66
2023-04-18T00:28:33.514Z,324.98
2023-04-18T00:29:33.477Z,319.60
2023-04-18T00:30:33.550Z,320.54
2023-04-18T00:31:33.470Z,316.52
2023-04-18T00:32:34.207Z,316.21
2023-04-18T00:33:34.120Z,315.30
2023-04-18T00:34:34.165Z,314.39
2023-04-18T00:35:33.646Z,312.30
2023-04-18T00:36:33.399Z,311.11
2023-04-18T00:37:33.391Z,311.11
2023-04-18T00:38:33.367Z,310.82
2023-04-18T00:39:33.337Z,309.94
2023-04-18T00:40:34.022Z,309.35
2023-04-18T00:41:33.328Z,308.77
2023-04-18T00:42:33.995Z,306.18
2023-04-18T00:43:33.547Z,307.04
2023-04-18T00:44:33.266Z,306.46
2023-04-18T00:45:33.280Z,305.04
2023-04-18T00:46:33.324Z,305.32
2023-04-18T00:47:33.954Z,304.47
2023-04-18T00:48:33.239Z,304.76
2023-04-18T00:49:33.222Z,304.19
2023-04-18T00:50:33.905Z,304.19
2023-04-18T00:51:33.196Z,302.23
2023-04-18T00:52:33.201Z,302.23
2023-04-18T00:53:33.167Z,304.76
2023-04-18T00:54:33.138Z,301.67
2023-04-18T00:55:33.157Z,303.35
2023-04-18T00:56:33.124Z,301.95
2023-04-18T00:57:33.801Z,302.23
2023-04-18T00:58:33.109Z,301.95
2023-04-18T00:59:33.333Z,301.95
2023-04-18T01:00:33.096Z,301.40
2023-04-18T01:01:33.090Z,301.12
2023-04-18T01:02:33.113Z,301.12
2023-04-18T01:03:33.942Z,302.23
2023-04-18T01:04:33.130Z,301.95
2023-04-18T01:05:33.288Z,302.51
2023-04-18T01:06:33.021Z,300.29
2023-04-18T01:07:32.979Z,300.29
2023-04-18T01:08:32.975Z,301.12
2023-04-18T01:09:33.636Z,300.29
2023-04-18T01:10:32.919Z,300.57
2023-04-18T01:11:32.938Z,302.51
2023-04-18T01:12:32.917Z,301.95
2023-04-18T01:13:32.668Z,301.95
2023-04-18T01:14:32.677Z,304.47
2023-04-18T01:15:32.866Z,305.32
2023-04-18T01:16:32.913Z,302.51
2023-04-18T01:17:32.905Z,305.04
2023-04-18T01:18:32.832Z,302.23
2023-04-18T01:19:32.833Z,303.91
2023-04-18T01:20:32.715Z,304.47
2023-04-18T01:21:32.790Z,304.19
2023-04-18T01:22:33.549Z,305.32
2023-04-18T01:23:32.769Z,303.07
2023-04-18T01:24:32.753Z,307.33
2023-04-18T01:25:32.733Z,304.76
2023-04-18T01:26:32.730Z,305.04
2023-04-18T01:27:32.708Z,308.19
2023-04-18T01:28:32.004Z,308.19
2023-04-18T01:29:32.687Z,307.61
2023-04-18T01:30:32.647Z,309.35
2023-04-18T01:31:32.697Z,308.19
2023-04-18T01:32:32.700Z,309.64
2023-04-18T01:33:32.685Z,310.23
2023-04-18T01:34:32.633Z,310.23
2023-04-18T01:35:32.590Z,310.23
2023-04-18T01:36:32.601Z,310.82
2023-04-18T01:37:32.590Z,310.52
2023-04-18T01:38:32.568Z,312.30
2023-04-18T01:39:32.566Z,312.60
2023-04-18T01:40:32.343Z,312.00
2023-04-18T01:41:32.791Z,312.30
2023-04-18T01:42:32.512Z,316.52
2023-04-18T01:43:32.522Z,312.89
2023-04-18T01:44:32.488Z,316.52
2023-04-18T01:45:32.459Z,315.30
2023-04-18T01:46:33.275Z,317.74
2023-04-18T01:47:32.510Z,316.82
2023-04-18T01:48:32.436Z,317.74
2023-04-18T01:49:32.443Z,320.85
2023-04-18T01:50:33.165Z,318.05
2023-04-18T01:51:32.399Z,319.60
2023-04-18T01:52:32.410Z,321.79
2023-04-18T01:53:33.055Z,321.16
2023-04-18T01:54:32.359Z,319.91
2023-04-18T01:55:32.598Z,324.34
2023-04-18T01:56:33.012Z,321.79
2023-04-18T01:57:32.330Z,322.74
2023-04-18T01:58:32.311Z,321.48
2023-04-18T01:59:32.285Z,322.74
2023-04-18T02:00:32.281Z,322.11
2023-04-18T02:01:32.944Z,322.74
2023-04-18T02:02:32.378Z,322.74
2023-04-18T02:03:32.660Z,324.66
2023-04-18T02:04:32.220Z,322.74
2023-04-18T02:05:32.193Z,324.02
2023-04-18T02:06:32.198Z,324.98
2023-04-18T02:07:32.906Z,323.70
2023-04-18T02:08:32.219Z,327.58
2023-04-18T02:09:32.202Z,326.92
2023-04-18T02:10:32.114Z,327.90
2023-04-18T02:11:32.172Z,329.88
2023-04-18T02:12:32.140Z,327.58
2023-04-18T02:13:32.787Z,330.21
2023-04-18T02:14:32.094Z,332.22
2023-04-18T02:15:32.781Z,332.89
2023-04-18T02:16:32.792Z,331.88
2023-04-18T02:17:32.122Z,332.22
2023-04-18T02:18:32.050Z,335.27
2023-04-18T02:19:32.262Z,335.27
2023-04-18T02:20:32.005Z,335.62
2023-04-18T02:21:31.997Z,334.93
2023-04-18T02:22:31.982Z,336.65
2023-04-18T02:23:31.981Z,339.44
2023-04-18T02:24:32.089Z,341.91
2023-04-18T02:25:31.921Z,340.14
2023-04-18T02:26:31.946Z,340.49
2023-04-18T02:27:31.922Z,342.27
2023-04-18T02:28:31.909Z,342.98
2023-04-18T02:29:31.912Z,342.98
2023-04-18T02:30:31.856Z,342.63
2023-04-18T02:31:31.909Z,344.42
2023-04-18T02:32:31.586Z,343.34
2023-04-18T02:33:31.840Z,344.79
2023-04-18T02:34:31.821Z,346.24
2023-04-18T02:35:31.787Z,347.34
2023-04-18T02:36:31.570Z,350.31
2023-04-18T02:37:31.783Z,345.88
2023-04-18T02:38:31.772Z,347.71
2023-04-18T02:39:31.770Z,348.08
2023-04-18T02:40:31.560Z,348.45
2023-04-18T02:41:31.728Z,349.93
2023-04-18T02:42:31.722Z,350.68
2023-04-18T02:43:31.753Z,349.93
2023-04-18T02:44:31.695Z,349.19
2023-04-18T02:45:31.706Z,351.43
2023-04-18T02:46:31.656Z,351.81
2023-04-18T02:47:35.386Z,350.68
2023-04-18T02:48:32.684Z,352.95
2023-04-18T02:49:31.625Z,354.09
2023-04-18T02:50:31.616Z,355.24
2023-04-18T02:51:31.614Z,355.62
2023-04-18T02:52:32.298Z,353.33
2023-04-18T02:53:31.591Z,357.56
2023-04-18T02:54:32.288Z,356.40
2023-04-18T02:55:31.536Z,357.95
2023-04-18T02:56:32.268Z,356.78
2023-04-18T02:57:31.523Z,357.56
2023-04-18T02:58:31.502Z,359.91
2023-04-18T02:59:31.498Z,358.73
2023-04-18T03:00:31.516Z,360.31
2023-04-18T03:01:31.447Z,360.70
2023-04-18T03:02:31.562Z,361.50
2023-04-18T03:03:32.144Z,363.10
2023-04-18T03:04:31.671Z,363.91
2023-04-18T03:05:32.074Z,359.91
2023-04-18T03:06:31.410Z,365.93
2023-04-18T03:07:31.415Z,367.16
2023-04-18T03:08:31.416Z,367.99
2023-04-18T03:09:31.352Z,367.58
2023-04-18T03:10:31.356Z,367.58
2023-04-18T03:11:31.301Z,370.48
2023-04-18T03:12:31.315Z,371.32
2023-04-18T03:13:31.314Z,369.64
2023-04-18T03:14:31.290Z,372.16
2023-04-18T03:15:32.033Z,373.86
2023-04-18T03:16:31.941Z,372.58
2023-04-18T03:17:31.287Z,372.58
2023-04-18T03:18:31.248Z,374.71
2023-04-18T03:19:31.239Z,374.28
2023-04-18T03:20:31.180Z,376.43
2023-04-18T03:21:31.185Z,377.73
2023-04-18T03:22:31.187Z,376.86
2023-04-18T03:23:31.217Z,381.92
2023-04-18T03:24:31.147Z,378.17
2023-04-18T03:25:31.131Z,384.34
2023-04-18T03:26:31.796Z,382.80
2023-04-18T03:27:31.110Z,377.73
2023-04-18T03:28:31.112Z,382.14
2023-04-18T03:29:31.763Z,382.36
2023-04-18T03:30:31.056Z,384.12
2023-04-18T03:31:31.152Z,384.56
2023-04-18T03:32:31.090Z,383.90
2023-04-18T03:33:31.051Z,385.23
2023-04-18T03:34:30.791Z,385.68
2023-04-18T03:35:30.788Z,385.23
2023-04-18T03:36:30.785Z,383.90
2023-04-18T03:37:30.978Z,384.56
2023-04-18T03:38:30.958Z,384.34
2023-04-18T03:39:30.962Z,385.23
2023-04-18T03:40:30.793Z,384.34
2023-04-18T03:41:30.898Z,384.79
2023-04-18T03:42:30.928Z,383.02
2023-04-18T03:43:30.794Z,383.90
2023-04-18T03:44:30.611Z,385.01
2023-04-18T03:45:30.806Z,386.57
2023-04-18T03:46:30.856Z,383.90
2023-04-18T03:47:30.856Z,340.85
2023-04-18T03:48:30.804Z,339.79
2023-04-18T03:49:30.855Z,344.79
2023-04-18T03:50:31.524Z,345.15
2023-04-18T03:51:30.072Z,348.08
2023-04-18T03:52:30.098Z,351.43
2023-04-18T03:53:30.764Z,354.09
2023-04-18T03:54:30.769Z,359.52
2023-04-18T03:55:31.433Z,357.17
2023-04-18T03:56:31.420Z,361.50
2023-04-18T03:57:30.712Z,363.50
2023-04-18T03:58:31.373Z,368.40
2023-04-18T03:59:30.695Z,367.58
2023-04-18T04:00:31.340Z,370.90
2023-04-18T04:01:30.977Z,369.64
2023-04-18T04:02:30.750Z,372.58
2023-04-18T04:03:30.721Z,373.43
2023-04-18T04:04:30.641Z,373.43
2023-04-18T04:05:30.612Z,381.27
2023-04-18T04:06:30.563Z,381.92
2023-04-18T04:07:31.249Z,382.36
2023-04-18T04:08:30.579Z,381.05
2023-04-18T04:09:30.556Z,382.80
2023-04-18T04:10:30.517Z,386.79
2023-04-18T04:11:30.531Z,385.90
2023-04-18T04:12:30.515Z,388.37
2023-04-18T04:13:30.499Z,391.10
2023-04-18T04:14:30.492Z,388.14
2023-04-18T04:15:30.447Z,391.79
2023-04-18T04:16:30.533Z,392.02
2023-04-18T04:17:30.494Z,392.72
2023-04-18T04:18:30.433Z,393.18
2023-04-18T04:19:30.475Z,394.34
2023-04-18T04:20:30.448Z,394.81
2023-04-18T04:21:30.391Z,395.04
2023-04-18T04:22:30.415Z,396.92
2023-04-18T04:23:31.056Z,397.40
2023-04-18T04:24:30.357Z,395.51
2023-04-18T04:25:30.327Z,394.34
2023-04-18T04:26:30.327Z,396.22
2023-04-18T04:27:30.321Z,394.34
2023-04-18T04:28:30.291Z,394.34
2023-04-18T04:29:30.301Z,394.34
2023-04-18T04:30:30.985Z,397.40
2023-04-18T04:31:30.256Z,397.40
2023-04-18T04:32:30.315Z,399.54
2023-04-18T04:33:30.899Z,402.43
2023-04-18T04:34:30.901Z,403.16
2023-04-18T04:35:30.203Z,403.90
2023-04-18T04:36:30.167Z,404.63
2023-04-18T04:37:30.204Z,405.12
2023-04-18T04:38:30.159Z,405.62
2023-04-18T04:39:30.154Z,406.61
2023-04-18T04:40:30.153Z,407.85
2023-04-18T04:41:30.211Z,405.37
2023-04-18T04:42:30.804Z,407.60
2023-04-18T04:43:30.113Z,408.60
2023-04-18T04:44:30.786Z,412.64
2023-04-18T04:45:30.190Z,416.25
2023-04-18T04:46:30.790Z,418.34
2023-04-18T04:47:30.110Z,418.86
2023-04-18T04:48:30.728Z,418.86
2023-04-18T04:49:30.025Z,423.65
2023-04-18T04:50:29.999Z,426.64
2023-04-18T04:51:29.966Z,429.66
2023-04-18T04:52:29.969Z,430.77
2023-04-18T04:53:29.957Z,434.14
2023-04-18T04:54:29.953Z,434.99
2023-04-18T04:55:29.688Z,437.27
2023-04-18T04:56:29.882Z,444.55
2023-04-18T04:57:29.682Z,444.26
2023-04-18T04:58:29.893Z,448.44
2023-04-18T04:59:29.890Z,449.65
2023-04-18T05:00:29.865Z,450.87
2023-04-18T05:01:29.883Z,456.42
2023-04-18T05:02:30.798Z,459.89
2023-04-18T05:03:29.908Z,460.20
2023-04-18T05:04:29.952Z,460.52
2023-04-18T05:05:29.805Z,465.02
2023-04-18T05:06:29.768Z,466.64
2023-04-18T05:07:30.463Z,469.60
2023-04-18T05:08:29.759Z,470.60
2023-04-18T05:09:29.735Z,470.60
2023-04-18T05:10:30.534Z,480.08
2023-04-18T05:11:29.704Z,473.94
2023-04-18T05:12:30.695Z,475.97
2023-04-18T05:13:30.417Z,483.56
2023-04-18T05:14:30.402Z,476.65
2023-04-18T05:15:29.671Z,478.70
2023-04-18T05:16:30.443Z,479.74
2023-04-18T05:17:29.693Z,479.05
2023-04-18T05:18:29.639Z,480.77
2023-04-18T05:19:29.605Z,481.12
2023-04-18T05:20:29.620Z,480.43
2023-04-18T05:21:29.603Z,481.12
2023-04-18T05:22:30.252Z,483.21
2023-04-18T05:23:30.244Z,481.12
2023-04-18T05:24:30.227Z,486.03
2023-04-18T05:25:29.501Z,481.12
2023-04-18T05:26:29.510Z,481.82
2023-04-18T05:27:28.768Z,481.82
2023-04-18T05:28:29.489Z,480.08
2023-04-18T05:29:30.160Z,482.16
2023-04-18T05:30:30.170Z,483.21
2023-04-18T05:31:29.556Z,484.97
2023-04-18T05:32:29.677Z,482.51
2023-04-18T05:33:30.092Z,489.96
2023-04-18T05:34:30.076Z,480.08
2023-04-18T05:35:28.692Z,487.81
2023-04-18T05:36:29.378Z,480.77
2023-04-18T05:37:29.385Z,484.62
2023-04-18T05:38:29.349Z,481.82
2023-04-18T05:39:29.351Z,479.74
2023-04-18T05:40:29.320Z,479.05
2023-04-18T05:41:29.321Z,480.08
2023-04-18T05:42:29.301Z,480.43
2023-04-18T05:43:29.299Z,489.60
2023-04-18T05:44:29.273Z,487.45
2023-04-18T05:45:29.232Z,488.52
2023-04-18T05:46:29.499Z,494.68
2023-04-18T05:47:29.252Z,488.52
2023-04-18T05:48:29.226Z,499.13
2023-04-18T05:49:29.205Z,499.88
2023-04-18T05:50:29.163Z,498.38
2023-04-18T05:51:28.916Z,499.50
2023-04-18T05:52:29.181Z,500.25
2023-04-18T05:53:29.197Z,496.52
2023-04-18T05:54:28.898Z,504.79
2023-04-18T05:55:28.906Z,504.79
2023-04-18T05:56:28.901Z,502.89
2023-04-18T05:57:29.094Z,495.05
2023-04-18T05:58:29.099Z,502.89
2023-04-18T05:59:28.917Z,497.64
2023-04-18T06:00:29.034Z,501.76
2023-04-18T06:01:29.050Z,503.27
2023-04-18T06:02:29.169Z,508.26
2023-04-18T06:03:29.272Z,513.74
2023-04-18T06:04:29.010Z,514.93
2023-04-18T06:05:29.271Z,509.81
2023-04-18T06:06:28.993Z,509.42
2023-04-18T06:07:28.918Z,509.03
2023-04-18T06:08:28.958Z,517.33
2023-04-18T06:09:28.935Z,511.38
2023-04-18T06:10:29.935Z,517.33
2023-04-18T06:11:29.654Z,517.73
2023-04-18T06:12:28.895Z,520.96
2023-04-18T06:13:28.903Z,524.24
2023-04-18T06:14:28.872Z,518.13
2023-04-18T06:15:28.182Z,520.96
2023-04-18T06:16:28.882Z,522.60
2023-04-18T06:17:28.839Z,519.34
2023-04-18T06:18:28.810Z,517.73
2023-04-18T06:19:28.819Z,521.78
2023-04-18T06:20:28.784Z,522.19
2023-04-18T06:21:28.752Z,522.60
2023-04-18T06:22:28.777Z,522.60
2023-04-18T06:23:28.416Z,521.37
2023-04-18T06:24:30.160Z,523.83
2023-04-18T06:25:28.761Z,522.60
2023-04-18T06:26:28.495Z,520.15
2023-04-18T06:27:31.514Z,521.37
2023-04-18T06:28:28.695Z,523.42
2023-04-18T06:29:29.339Z,520.96
2023-04-18T06:30:29.338Z,520.15
2023-04-18T06:31:27.998Z,518.94
2023-04-18T06:32:28.641Z,518.53
2023-04-18T06:33:28.615Z,519.74
2023-04-18T06:34:28.607Z,518.94
2023-04-18T06:35:28.580Z,518.13
2023-04-18T06:36:28.547Z,520.56
2023-04-18T06:37:29.292Z,522.60
2023-04-18T06:38:28.542Z,520.56
2023-04-18T06:39:28.539Z,519.74
2023-04-18T06:40:28.530Z,523.42
2023-04-18T06:41:28.482Z,519.74
2023-04-18T06:42:29.189Z,518.53
2023-04-18T06:43:28.471Z,518.94
2023-04-18T06:44:29.164Z,520.15
2023-04-18T06:45:28.516Z,518.53
2023-04-18T06:46:29.367Z,519.34
2023-04-18T06:47:27.728Z,520.15
2023-04-18T06:48:28.431Z,518.94
2023-04-18T06:49:28.387Z,521.78
2023-04-18T06:50:28.401Z,516.12
2023-04-18T06:51:28.360Z,516.12
2023-04-18T06:52:28.351Z,515.73
2023-04-18T06:53:28.232Z,516.92
2023-04-18T06:54:28.341Z,511.38
2023-04-18T06:55:27.585Z,518.94
2023-04-18T06:56:28.270Z,517.73
2023-04-18T06:57:28.318Z,516.92
2023-04-18T06:58:28.270Z,520.96
2023-04-18T06:59:28.250Z,519.34
2023-04-18T07:00:29.005Z,516.53
2023-04-18T07:01:28.221Z,514.53
2023-04-18T07:02:28.346Z,514.14
2023-04-18T07:03:27.664Z,517.73
2023-04-18T07:04:28.977Z,516.12
2023-04-18T07:05:28.177Z,516.53
2023-04-18T07:06:28.163Z,518.13
2023-04-18T07:07:28.131Z,511.38
2023-04-18T07:08:28.129Z,514.93
2023-04-18T07:09:28.784Z,514.53
2023-04-18T07:10:28.107Z,517.73
2023-04-18T07:11:27.388Z,514.93
2023-04-18T07:12:28.117Z,514.93
2023-04-18T07:13:28.058Z,516.53
2023-04-18T07:14:28.052Z,520.56
2023-04-18T07:15:28.033Z,514.53
2023-04-18T07:16:28.052Z,517.33
2023-04-18T07:17:27.832Z,519.34
2023-04-18T07:18:37.441Z,522.60
2023-04-18T07:19:28.964Z,521.37
2023-04-18T07:20:27.981Z,519.34
2023-04-18T07:21:28.627Z,519.74
2023-04-18T07:22:27.915Z,519.74
2023-04-18T07:23:27.928Z,520.15
2023-04-18T07:24:27.925Z,523.83
2023-04-18T07:25:28.588Z,527.98
2023-04-18T07:26:27.886Z,526.31
2023-04-18T07:27:27.844Z,531.34
2023-04-18T07:28:27.883Z,532.19
2023-04-18T07:29:27.889Z,535.61
2023-04-18T07:30:27.846Z,540.38
2023-04-18T07:31:28.778Z,540.38
2023-04-18T07:32:27.841Z,544.35
2023-04-18T07:33:29.247Z,542.58
2023-04-18T07:34:28.500Z,552.93
2023-04-18T07:35:28.526Z,549.74
2023-04-18T07:36:28.443Z,551.56
2023-04-18T07:37:27.738Z,552.47
2023-04-18T07:38:27.717Z,552.93
2023-04-18T07:39:27.719Z,553.39
2023-04-18T07:40:28.366Z,553.85
2023-04-18T07:41:27.661Z,559.42
2023-04-18T07:42:27.702Z,560.36
2023-04-18T07:43:27.659Z,559.89
2023-04-18T07:44:27.646Z,560.84
2023-04-18T07:45:27.724Z,561.31
2023-04-18T07:46:27.660Z,560.84
2023-04-18T07:47:29.967Z,561.31
2023-04-18T07:48:27.616Z,565.59
2023-04-18T07:49:27.570Z,570.43
2023-04-18T07:50:27.572Z,570.43
2023-04-18T07:51:27.536Z,568.97
2023-04-18T07:52:27.536Z,570.43
2023-04-18T07:53:27.527Z,569.46
2023-04-18T07:54:27.514Z,576.84
2023-04-18T07:55:27.513Z,582.39
2023-04-18T07:56:27.481Z,587.00
2023-04-18T07:57:27.438Z,588.55
2023-04-18T07:58:27.008Z,589.08
2023-04-18T07:59:27.481Z,593.27
2023-04-18T08:00:27.488Z,594.86
2023-04-18T08:01:27.098Z,595.39
2023-04-18T08:02:27.464Z,596.99
2023-04-18T08:03:28.343Z,601.84
2023-04-18T08:04:29.977Z,605.11
2023-04-18T08:05:27.384Z,606.76
2023-04-18T08:06:27.947Z,605.66
2023-04-18T08:07:27.306Z,612.90
2023-04-18T08:08:27.326Z,612.34
2023-04-18T08:09:27.323Z,615.16
2023-04-18T08:10:27.115Z,614.03
2023-04-18T08:11:27.278Z,618.58
2023-04-18T08:12:27.240Z,624.38
2023-04-18T08:13:27.022Z,629.09
2023-04-18T08:14:27.033Z,629.09
2023-04-18T08:15:27.223Z,629.68
2023-04-18T08:16:27.305Z,630.28
2023-04-18T08:17:27.229Z,628.49
2023-04-18T08:18:27.204Z,631.47
2023-04-18T08:19:27.203Z,635.68
2023-04-18T08:20:27.227Z,644.28
2023-04-18T08:21:27.030Z,644.28
2023-04-18T08:22:27.023Z,639.34
2023-04-18T08:23:27.020Z,646.16
2023-04-18T08:24:26.528Z,644.91
2023-04-18T08:25:27.802Z,649.93
2023-04-18T08:26:27.083Z,649.93
2023-04-18T08:27:27.028Z,649.30
2023-04-18T08:28:27.056Z,646.78
2023-04-18T08:29:27.039Z,644.28
2023-04-18T08:30:27.737Z,642.42
2023-04-18T08:31:27.077Z,641.19
2023-04-18T08:32:27.045Z,636.29
2023-04-18T08:33:27.708Z,623.21
2023-04-18T08:34:26.972Z,626.72
2023-04-18T08:35:26.961Z,619.16
2023-04-18T08:36:27.016Z,614.03
2023-04-18T08:37:27.621Z,612.90
2023-04-18T08:38:27.012Z,606.21
2023-04-18T08:39:27.007Z,601.84
2023-04-18T08:40:26.922Z,595.92
2023-04-18T08:41:26.862Z,598.59
2023-04-18T08:42:26.849Z,592.74
2023-04-18T08:43:26.845Z,591.16
2023-04-18T08:44:26.867Z,589.60
2023-04-18T08:45:26.829Z,580.86
2023-04-18T08:46:26.970Z,584.94
2023-04-18T08:47:26.789Z,585.97
2023-04-18T08:48:26.774Z,584.43
2023-04-18T08:49:27.438Z,589.60
2023-04-18T08:50:26.742Z,588.55
2023-04-18T08:51:26.766Z,587.52
2023-04-18T08:52:26.687Z,582.39
2023-04-18T08:53:26.726Z,587.52
2023-04-18T08:54:27.335Z,583.41
2023-04-18T08:55:26.667Z,583.92
2023-04-18T08:56:26.660Z,583.92
2023-04-18T08:57:27.425Z,588.04
2023-04-18T08:58:26.627Z,582.90
2023-04-18T08:59:26.616Z,581.88
2023-04-18T09:00:26.594Z,580.86
2023-04-18T09:01:26.614Z,583.92
2023-04-18T09:02:26.647Z,579.35
2023-04-18T09:03:26.620Z,582.90
2023-04-18T09:04:26.570Z,577.34
2023-04-18T09:05:26.535Z,576.84
2023-04-18T09:06:27.778Z,577.34
2023-04-18T09:07:26.473Z,583.41
2023-04-18T09:08:26.486Z,580.36
2023-04-18T09:09:26.486Z,582.39
2023-04-18T09:10:26.476Z,579.85
2023-04-18T09:11:27.122Z,578.85
2023-04-18T09:12:27.116Z,575.85
2023-04-18T09:13:26.419Z,574.86
2023-04-18T09:14:26.409Z,576.35
2023-04-18T09:15:26.395Z,574.36
2023-04-18T09:16:26.437Z,572.39
2023-04-18T09:17:26.386Z,566.55
2023-04-18T09:18:26.379Z,566.55
2023-04-18T09:19:26.349Z,563.20
2023-04-18T09:20:26.370Z,562.73
2023-04-18T09:21:26.364Z,564.63
2023-04-18T09:22:26.999Z,556.62
2023-04-18T09:23:26.292Z,555.23
2023-04-18T09:24:26.955Z,556.62
2023-04-18T09:25:26.972Z,552.93
2023-04-18T09:26:26.292Z,553.39
2023-04-18T09:27:26.230Z,553.39
2023-04-18T09:28:26.198Z,553.39
2023-04-18T09:29:26.218Z,555.23
2023-04-18T09:30:26.198Z,551.10
2023-04-18T09:31:26.296Z,551.10
2023-04-18T09:32:26.190Z,547.93
2023-04-18T09:33:26.134Z,546.59
2023-04-18T09:34:25.913Z,546.59
2023-04-18T09:35:25.902Z,545.24
2023-04-18T09:36:26.149Z,545.69
2023-04-18T09:37:26.118Z,544.80
2023-04-18T09:38:26.072Z,541.26
2023-04-18T09:39:26.082Z,543.02
2023-04-18T09:40:26.077Z,545.69
2023-04-18T09:41:26.043Z,544.80
2023-04-18T09:42:28.690Z,546.59
2023-04-18T09:43:26.023Z,545.24
2023-04-18T09:44:26.014Z,547.03
2023-04-18T09:45:26.739Z,545.24
2023-04-18T09:46:26.005Z,548.83
2023-04-18T09:47:25.969Z,549.74
2023-04-18T09:48:25.961Z,546.59
2023-04-18T09:49:26.952Z,547.93
2023-04-18T09:50:26.637Z,548.83
2023-04-18T09:51:26.637Z,546.14
2023-04-18T09:52:26.636Z,545.24
2023-04-18T09:53:26.613Z,544.35
2023-04-18T09:54:26.589Z,543.02
2023-04-18T09:55:25.854Z,543.91
2023-04-18T09:56:26.532Z,539.51
2023-04-18T09:57:26.581Z,541.26
2023-04-18T09:58:25.106Z,535.18
2023-04-18T09:59:25.793Z,538.20
2023-04-18T10:00:25.785Z,539.07
2023-04-18T10:01:25.524Z,538.20
2023-04-18T10:02:25.853Z,538.20
2023-04-18T10:03:25.808Z,536.04
2023-04-18T10:04:25.806Z,536.90
2023-04-18T10:05:25.769Z,537.34
2023-04-18T10:06:25.697Z,537.77
2023-04-18T10:07:25.673Z,539.51
2023-04-18T10:08:25.678Z,537.77
2023-04-18T10:09:25.705Z,537.34
2023-04-18T10:10:25.636Z,536.04
2023-04-18T10:11:25.695Z,542.58
2023-04-18T10:12:26.320Z,543.91
2023-04-18T10:13:25.576Z,539.95
2023-04-18T10:14:27.380Z,539.07
2023-04-18T10:15:26.265Z,538.20
2023-04-18T10:16:25.609Z,538.20
2023-04-18T10:17:28.060Z,536.47
2023-04-18T10:18:25.533Z,535.18
2023-04-18T10:19:25.522Z,537.77
2023-04-18T10:20:25.503Z,534.75
2023-04-18T10:21:25.489Z,537.77
2023-04-18T10:22:25.481Z,538.20
2023-04-18T10:23:27.038Z,541.26
2023-04-18T10:24:25.456Z,543.91
2023-04-18T10:25:25.454Z,542.14
2023-04-18T10:26:25.429Z,540.38
2023-04-18T10:27:25.434Z,542.14
2023-04-18T10:28:25.379Z,540.82
2023-04-18T10:29:25.402Z,537.77
2023-04-18T10:30:25.168Z,540.38
2023-04-18T10:31:25.175Z,543.47
2023-04-18T10:32:25.170Z,544.80
2023-04-18T10:33:31.014Z,541.70
2023-04-18T10:34:26.326Z,540.38
2023-04-18T10:35:25.317Z,542.14
2023-04-18T10:36:25.312Z,543.02
2023-04-18T10:37:25.274Z,545.69
2023-04-18T10:38:25.246Z,547.03
2023-04-18T10:39:25.253Z,544.35
2023-04-18T10:40:25.228Z,542.14
2023-04-18T10:41:25.254Z,541.26
2023-04-18T10:42:25.218Z,541.70
2023-04-18T10:43:25.181Z,541.70
2023-04-18T10:44:25.194Z,536.90
2023-04-18T10:45:25.183Z,534.75
2023-04-18T10:46:32.338Z,535.61
2023-04-18T10:47:26.218Z,536.04
2023-04-18T10:48:25.130Z,535.18
2023-04-18T10:49:27.322Z,538.20
2023-04-18T10:50:25.771Z,533.89
2023-04-18T10:51:26.037Z,536.47
2023-04-18T10:52:25.797Z,533.47
2023-04-18T10:53:25.799Z,532.61
2023-04-18T10:54:25.772Z,529.23
2023-04-18T10:55:25.757Z,533.89
2023-04-18T10:56:25.014Z,537.77
2023-04-18T10:57:25.009Z,537.77
2023-04-18T10:58:24.959Z,543.91
2023-04-18T10:59:24.979Z,543.47
2023-04-18T11:00:24.978Z,547.48
2023-04-18T11:01:24.358Z,544.35
2023-04-18T11:02:24.545Z,545.69
2023-04-18T11:03:24.940Z,548.83
2023-04-18T11:04:24.973Z,552.01
2023-04-18T11:05:25.642Z,550.65
2023-04-18T11:06:24.892Z,551.56
2023-04-18T11:07:24.873Z,549.74
2023-04-18T11:08:24.832Z,552.01
2023-04-18T11:09:25.527Z,551.10
2023-04-18T11:10:24.831Z,550.19
2023-04-18T11:11:24.809Z,552.47
2023-04-18T11:12:24.848Z,553.85
2023-04-18T11:13:24.770Z,551.56
2023-04-18T11:14:24.757Z,552.47
2023-04-18T11:15:24.753Z,547.93
2023-04-18T11:16:25.519Z,545.69
2023-04-18T11:17:24.809Z,544.35
2023-04-18T11:18:23.992Z,541.70
2023-04-18T11:19:24.708Z,543.47
2023-04-18T11:20:24.683Z,537.77
2023-04-18T11:21:25.343Z,541.26
2023-04-18T11:22:24.664Z,534.75
2023-04-18T11:23:24.638Z,533.89
2023-04-18T11:24:24.688Z,532.19
2023-04-18T11:25:24.638Z,529.65
2023-04-18T11:26:24.652Z,527.14
2023-04-18T11:27:24.602Z,525.07
2023-04-18T11:28:24.577Z,522.60
2023-04-18T11:29:24.574Z,520.15
2023-04-18T11:30:24.557Z,519.74
2023-04-18T11:31:24.607Z,519.74
2023-04-18T11:32:24.802Z,516.53
2023-04-18T11:33:24.534Z,518.53
2023-04-18T11:34:24.014Z,517.33
2023-04-18T11:35:24.495Z,515.73
2023-04-18T11:36:24.481Z,512.16
2023-04-18T11:37:24.452Z,510.20
2023-04-18T11:38:24.413Z,510.59
2023-04-18T11:39:24.472Z,508.26
2023-04-18T11:40:25.086Z,507.10
2023-04-18T11:41:24.388Z,505.94
2023-04-18T11:42:24.008Z,506.33
2023-04-18T11:43:24.353Z,504.41
2023-04-18T11:44:24.349Z,502.89
2023-04-18T11:45:24.373Z,503.65
2023-04-18T11:46:24.376Z,503.27
2023-04-18T11:47:24.339Z,499.13
2023-04-18T11:48:24.274Z,497.27
2023-04-18T11:49:24.287Z,495.79
2023-04-18T11:50:23.818Z,496.52
2023-04-18T11:51:24.250Z,496.16
2023-04-18T11:52:24.245Z,494.68
2023-04-18T11:53:24.209Z,491.40
2023-04-18T11:54:24.214Z,492.86
2023-04-18T11:55:24.262Z,492.49
2023-04-18T11:56:23.967Z,491.40
2023-04-18T11:57:24.167Z,489.24
2023-04-18T11:58:24.038Z,489.96
2023-04-18T11:59:24.384Z,490.32
2023-04-18T12:00:24.132Z,488.88
2023-04-18T12:01:24.137Z,487.45
2023-04-18T12:02:24.870Z,484.62
2023-04-18T12:03:24.212Z,481.82
2023-04-18T12:04:24.260Z,484.27
2023-04-18T12:05:25.015Z,483.56
2023-04-18T12:06:25.175Z,486.03
2023-04-18T12:07:24.773Z,486.39
2023-04-18T12:08:24.758Z,484.97
2023-04-18T12:09:24.754Z,486.39
2023-04-18T12:10:24.028Z,483.91
2023-04-18T12:11:24.727Z,483.21
2023-04-18T12:12:23.978Z,483.21
2023-04-18T12:13:23.942Z,485.32
2023-04-18T12:14:23.946Z,486.74
2023-04-18T12:15:23.486Z,484.97
2023-04-18T12:16:23.958Z,485.68
2023-04-18T12:17:24.000Z,486.39
2023-04-18T12:18:23.861Z,483.91
2023-04-18T12:19:23.884Z,483.91
2023-04-18T12:20:23.861Z,484.27
2023-04-18T12:21:23.840Z,481.12
2023-04-18T12:22:23.836Z,479.05
2023-04-18T12:23:23.789Z,478.36
2023-04-18T12:24:25.061Z,476.99
2023-04-18T12:25:26.933Z,473.94
2023-04-18T12:26:23.475Z,476.31
2023-04-18T12:27:23.757Z,474.95
2023-04-18T12:28:23.736Z,474.28